createdAt,value
2023-03-11T00:00:56.612Z,100942.47
2023-03-11T00:03:24.893Z,100930.25
2023-03-11T00:05:56.297Z,100921.28
2023-03-11T00:08:25.135Z,100929.88
2023-03-11T00:10:55.535Z,100935.28
2023-03-11T00:13:23.379Z,100929.50
2023-03-11T00:15:56.010Z,100915.72
2023-03-11T00:18:26.985Z,100927.50
2023-03-11T00:20:55.394Z,100925.13
2023-03-11T00:23:22.414Z,100926.13
2023-03-11T00:25:49.539Z,100925.13
2023-03-11T00:28:17.175Z,100897.94
2023-03-11T00:30:46.185Z,100907.91
2023-03-11T00:33:15.648Z,100920.41
2023-03-11T00:35:44.069Z,100907.91
2023-03-11T00:38:15.526Z,100901.69
2023-03-11T00:40:43.627Z,100897.44
2023-03-11T00:43:10.621Z,100893.03
2023-03-11T00:45:37.759Z,100896.56
2023-03-11T00:48:04.848Z,100887.44
2023-03-11T00:50:35.049Z,100860.09
2023-03-11T00:53:03.094Z,100878.16
2023-03-11T00:55:32.450Z,100854.84
2023-03-11T00:58:04.091Z,100864.28
2023-03-11T01:00:38.661Z,100872.72
2023-03-11T01:03:06.124Z,100864.91
2023-03-11T01:05:35.008Z,100872.34
2023-03-11T01:08:03.365Z,100875.72
2023-03-11T01:10:35.677Z,100846.34
2023-03-11T01:13:04.117Z,100845.13
2023-03-11T01:15:34.401Z,100853.69
2023-03-11T01:18:01.815Z,100851.69
2023-03-11T01:20:28.846Z,100834.13
2023-03-11T01:22:56.070Z,100859.09
2023-03-11T01:25:24.130Z,100838.97
2023-03-11T01:27:51.656Z,100833.44
2023-03-11T01:30:21.639Z,100855.34
2023-03-11T01:32:49.441Z,100820.56
2023-03-11T01:35:18.167Z,100836.25
2023-03-11T01:37:48.296Z,100845.03
2023-03-11T01:40:24.371Z,100820.38
2023-03-11T01:42:51.468Z,100803.63
2023-03-11T01:45:43.431Z,100830.00
2023-03-11T01:48:12.419Z,100820.38
2023-03-11T01:50:45.310Z,100832.31
2023-03-11T01:53:14.958Z,100818.81
2023-03-11T01:55:42.906Z,100823.22
2023-03-11T01:58:14.536Z,100815.28
2023-03-11T02:00:42.627Z,100821.28
2023-03-11T02:03:17.905Z,100809.66
2023-03-11T02:05:47.382Z,100814.19
2023-03-11T02:08:14.255Z,100804.88
2023-03-11T02:10:42.843Z,100800.19
2023-03-11T02:13:10.994Z,100795.09
2023-03-11T02:15:40.034Z,100784.00
2023-03-11T02:18:08.342Z,100777.91
2023-03-11T02:21:25.403Z,100781.59
2023-03-11T02:24:14.246Z,100764.50
2023-03-11T02:27:09.382Z,100784.56
2023-03-11T02:29:37.762Z,100770.91
2023-03-11T02:32:08.979Z,100758.59
2023-03-11T02:34:40.445Z,100771.53
2023-03-11T02:37:10.623Z,100783.88
2023-03-11T02:39:44.124Z,100779.19
2023-03-11T02:42:15.739Z,100769.53
2023-03-11T02:44:46.328Z,100756.53
2023-03-11T02:47:13.646Z,100738.63
2023-03-11T02:49:40.719Z,100754.53
2023-03-11T02:52:07.765Z,100767.69
2023-03-11T02:54:34.679Z,100756.53
2023-03-11T02:57:01.712Z,100746.72
2023-03-11T02:59:28.623Z,100756.84
2023-03-11T03:01:56.492Z,100746.72
2023-03-11T03:04:23.502Z,100749.75
2023-03-11T03:06:50.460Z,100753.81
2023-03-11T03:09:17.946Z,100742.34
2023-03-11T03:11:44.926Z,100758.50
2023-03-11T03:14:11.881Z,100758.00
2023-03-11T03:16:39.226Z,100717.53
2023-03-11T03:19:06.141Z,100733.03
2023-03-11T03:21:33.194Z,100743.00
2023-03-11T03:24:00.262Z,100738.75
2023-03-11T03:26:27.180Z,100730.16
2023-03-11T03:28:54.166Z,100721.72
2023-03-11T03:31:21.394Z,100723.56
2023-03-11T03:33:48.298Z,100729.97
2023-03-11T03:36:16.466Z,100731.81
2023-03-11T03:38:47.986Z,100730.28
2023-03-11T03:41:18.357Z,100705.84
2023-03-11T03:43:45.603Z,100727.75
2023-03-11T03:46:13.483Z,100719.81
2023-03-11T03:48:44.744Z,100720.97
2023-03-11T03:51:16.068Z,100726.34
2023-03-11T03:53:55.540Z,100707.66
2023-03-11T03:56:25.240Z,100714.19
2023-03-11T03:58:53.797Z,100726.69
2023-03-11T04:01:22.533Z,100716.22
2023-03-11T04:03:49.589Z,100717.22
2023-03-11T04:06:19.617Z,100729.00
2023-03-11T04:08:52.213Z,100717.84
2023-03-11T04:11:21.348Z,100725.63
2023-03-11T04:13:48.521Z,100728.00
2023-03-11T04:16:20.077Z,100734.84
2023-03-11T04:18:48.281Z,100743.78
2023-03-11T04:21:15.550Z,100725.06
2023-03-11T04:23:42.952Z,100733.63
2023-03-11T04:26:11.437Z,100731.78
2023-03-11T04:28:38.694Z,100739.34
2023-03-11T04:31:05.889Z,100748.75
2023-03-11T04:33:34.056Z,100752.44
2023-03-11T04:36:05.882Z,100762.53
2023-03-11T04:38:34.958Z,100758.16
2023-03-11T04:41:03.657Z,100744.28
2023-03-11T04:43:31.660Z,100750.22
2023-03-11T04:45:58.643Z,100765.22
2023-03-11T04:48:27.669Z,100762.13
2023-03-11T04:50:55.721Z,100762.69
2023-03-11T04:53:24.070Z,100780.00
2023-03-11T04:55:52.474Z,100789.66
2023-03-11T04:58:20.649Z,100781.38
2023-03-11T05:00:48.502Z,100788.47
2023-03-11T05:03:15.967Z,100772.25
2023-03-11T05:05:43.080Z,100773.69
2023-03-11T05:08:10.505Z,100767.56
2023-03-11T05:10:37.715Z,100761.75
2023-03-11T05:13:06.485Z,100752.00
2023-03-11T05:15:37.652Z,100765.72
2023-03-11T05:18:06.585Z,100762.59
2023-03-11T05:20:35.889Z,100763.63
2023-03-11T05:23:03.925Z,100773.25
2023-03-11T05:25:33.030Z,100752.66
2023-03-11T05:28:00.184Z,100735.13
2023-03-11T05:30:27.551Z,100753.84
2023-03-11T05:32:56.416Z,100759.06
2023-03-11T05:35:24.207Z,100734.66
2023-03-11T05:37:51.239Z,100756.06
2023-03-11T05:40:19.421Z,100749.97
2023-03-11T05:42:47.315Z,100748.97
2023-03-11T05:45:16.212Z,100742.59
2023-03-11T05:47:45.803Z,100730.97
2023-03-11T05:50:14.846Z,100730.13
2023-03-11T05:52:44.031Z,100730.44
2023-03-11T05:55:12.526Z,100735.81
2023-03-11T05:57:41.542Z,100718.47
2023-03-11T06:00:12.583Z,100737.19
2023-03-11T06:02:47.726Z,100728.41
2023-03-11T06:05:17.912Z,100746.28
2023-03-11T06:07:47.524Z,100734.66
2023-03-11T06:10:14.490Z,100724.41
2023-03-11T06:12:42.135Z,100707.94
2023-03-11T06:15:17.987Z,100702.94
2023-03-11T06:17:45.001Z,100714.38
2023-03-11T06:20:12.780Z,100714.94
2023-03-11T06:22:40.959Z,100720.16
2023-03-11T06:25:09.382Z,100710.28
2023-03-11T06:27:37.934Z,100714.38
2023-03-11T06:30:07.283Z,100680.22
2023-03-11T06:32:40.719Z,100699.72
2023-03-11T06:35:08.684Z,100703.47
2023-03-11T06:37:39.143Z,100703.16
2023-03-11T06:40:08.022Z,100695.06
2023-03-11T06:42:35.743Z,100678.56
2023-03-11T06:45:04.156Z,100686.06
2023-03-11T06:47:31.095Z,100682.06
2023-03-11T06:49:58.033Z,100682.44
2023-03-11T06:52:27.292Z,100694.72
2023-03-11T06:54:55.728Z,100701.16
2023-03-11T06:57:22.832Z,100700.03
2023-03-11T06:59:52.240Z,100696.53
2023-03-11T07:02:19.534Z,100690.41
2023-03-11T07:04:49.627Z,100696.91
2023-03-11T07:07:18.652Z,100700.69
2023-03-11T07:09:45.628Z,100700.00
2023-03-11T07:12:15.047Z,100701.00
2023-03-11T07:14:42.575Z,100699.31
2023-03-11T07:17:09.724Z,100710.34
2023-03-11T07:19:43.448Z,100732.81
2023-03-11T07:22:10.452Z,100725.03
2023-03-11T07:24:37.309Z,100709.47
2023-03-11T07:27:04.409Z,100725.28
2023-03-11T07:29:31.316Z,100717.84
2023-03-11T07:31:58.480Z,100736.72
2023-03-11T07:34:25.479Z,100701.25
2023-03-11T07:36:52.448Z,100723.25
2023-03-11T07:39:20.134Z,100730.59
2023-03-11T07:41:47.660Z,100726.97
2023-03-11T07:44:16.963Z,100732.53
2023-03-11T07:46:44.528Z,100744.53
2023-03-11T07:49:11.682Z,100718.16
2023-03-11T07:51:41.142Z,100731.72
2023-03-11T07:54:08.433Z,100740.47
2023-03-11T07:56:35.786Z,100740.50
2023-03-11T07:59:04.237Z,100720.22
2023-03-11T08:01:36.772Z,100729.19
2023-03-11T08:04:05.749Z,100721.66
2023-03-11T08:06:34.054Z,100734.81
2023-03-11T08:09:03.457Z,100727.03
2023-03-11T08:11:31.662Z,100727.72
2023-03-11T08:13:59.153Z,100733.13
2023-03-11T08:16:27.185Z,100735.16
2023-03-11T08:18:54.686Z,100735.16
2023-03-11T08:21:25.541Z,100739.72
2023-03-11T08:23:53.311Z,100744.47
2023-03-11T08:26:24.495Z,100741.59
2023-03-11T08:28:51.401Z,100739.22
2023-03-11T08:31:21.500Z,100741.59
2023-03-11T08:33:52.876Z,100726.03
2023-03-11T08:36:21.202Z,100735.66
2023-03-11T08:38:48.444Z,100710.97
2023-03-11T08:41:15.849Z,100735.50
2023-03-11T08:43:44.641Z,100739.22
2023-03-11T08:46:22.813Z,100740.22
2023-03-11T08:48:49.869Z,100741.88
2023-03-11T08:51:17.001Z,100743.56
2023-03-11T08:53:43.968Z,100739.47
2023-03-11T08:56:11.082Z,100754.34
2023-03-11T08:58:38.123Z,100748.94
2023-03-11T09:01:06.845Z,100764.66
2023-03-11T09:03:35.718Z,100768.16
2023-03-11T09:06:06.070Z,100775.91
2023-03-11T09:08:33.747Z,100770.59
2023-03-11T09:11:00.880Z,100773.03
2023-03-11T09:13:28.248Z,100767.16
2023-03-11T09:15:55.536Z,100761.56
2023-03-11T09:18:22.819Z,100746.63
2023-03-11T09:20:50.223Z,100738.69
2023-03-11T09:23:18.366Z,100734.72
2023-03-11T09:25:45.259Z,100733.56
2023-03-11T09:28:12.203Z,100756.59
2023-03-11T09:30:39.269Z,100766.50
2023-03-11T09:33:06.229Z,100763.63
2023-03-11T09:35:33.530Z,100779.25
2023-03-11T09:38:00.857Z,100765.78
2023-03-11T09:40:42.345Z,100770.25
2023-03-11T09:43:17.041Z,100766.22
2023-03-11T09:45:59.066Z,100771.16
2023-03-11T09:48:44.120Z,100763.03
2023-03-11T09:51:22.318Z,100752.09
2023-03-11T09:53:55.574Z,100760.75
2023-03-11T09:56:23.281Z,100776.09
2023-03-11T09:59:00.094Z,100771.41
2023-03-11T10:01:45.126Z,100772.44
2023-03-11T10:04:18.927Z,100780.00
2023-03-11T10:06:47.804Z,100765.09
2023-03-11T10:09:33.629Z,100754.34
2023-03-11T10:12:11.281Z,100757.22
2023-03-11T10:15:06.073Z,100756.13
2023-03-11T10:17:42.131Z,100761.97
2023-03-11T10:20:13.166Z,100743.91
2023-03-11T10:23:08.173Z,100755.50
2023-03-11T10:25:49.311Z,100741.19
2023-03-11T10:28:18.950Z,100750.78
2023-03-11T10:30:45.772Z,100745.91
2023-03-11T10:33:28.980Z,100742.50
2023-03-11T10:36:03.245Z,100743.84
2023-03-11T10:38:46.674Z,100740.16
2023-03-11T10:41:20.498Z,100738.59
2023-03-11T10:44:13.505Z,100740.00
2023-03-11T10:46:40.493Z,100747.53
2023-03-11T10:49:25.553Z,100741.41
2023-03-11T10:51:55.528Z,100742.53
2023-03-11T10:54:44.053Z,100747.97
2023-03-11T10:57:20.072Z,100737.09
2023-03-11T10:59:50.959Z,100748.09
2023-03-11T11:02:28.915Z,100734.00
2023-03-11T11:05:27.566Z,100719.56
2023-03-11T11:08:17.193Z,100732.41
2023-03-11T11:10:52.091Z,100718.41
2023-03-11T11:13:22.488Z,100705.38
2023-03-11T11:15:55.630Z,100704.56
2023-03-11T11:18:49.459Z,100697.66
2023-03-11T11:21:38.558Z,100699.00
2023-03-11T11:24:35.211Z,100690.88
2023-03-11T11:27:26.769Z,100680.44
2023-03-11T11:30:15.318Z,100678.19
2023-03-11T11:32:42.444Z,100684.09
2023-03-11T11:35:17.180Z,100681.25
2023-03-11T11:37:47.945Z,100690.97
2023-03-11T11:40:14.924Z,100689.91
2023-03-11T11:42:49.085Z,100691.34
2023-03-11T11:45:37.382Z,100687.72
2023-03-11T11:48:31.485Z,100671.25
2023-03-11T11:51:02.321Z,100686.03
2023-03-11T11:53:44.361Z,100677.94
2023-03-11T11:56:11.331Z,100676.88
2023-03-11T11:58:41.019Z,100678.41
2023-03-11T12:01:14.187Z,100673.09
2023-03-11T12:03:50.069Z,100662.41
2023-03-11T12:06:39.817Z,100664.75
2023-03-11T12:09:11.587Z,100672.69
2023-03-11T12:11:49.300Z,100676.81
2023-03-11T12:14:35.273Z,100676.22
2023-03-11T12:17:05.048Z,100669.34
2023-03-11T12:19:54.217Z,100682.44
2023-03-11T12:22:42.944Z,100661.06
2023-03-11T12:25:34.391Z,100674.81
2023-03-11T12:28:12.607Z,100677.72
2023-03-11T12:30:45.603Z,100664.50
2023-03-11T12:33:31.181Z,100665.50
2023-03-11T12:36:00.600Z,100660.50
2023-03-11T12:38:39.413Z,100664.75
2023-03-11T12:41:31.868Z,100662.53
2023-03-11T12:44:01.412Z,100664.13
2023-03-11T12:46:54.506Z,100667.91
2023-03-11T12:49:27.295Z,100669.59
2023-03-11T12:52:13.898Z,100669.41
2023-03-11T12:54:49.270Z,100671.34
2023-03-11T12:57:16.138Z,100648.28
2023-03-11T13:00:19.650Z,100649.97
2023-03-11T13:02:55.527Z,100640.44
2023-03-11T13:05:37.877Z,100619.88
2023-03-11T13:08:17.686Z,100609.16
2023-03-11T13:10:46.655Z,100627.47
2023-03-11T13:13:23.560Z,100629.34
2023-03-11T13:15:51.041Z,100623.91
2023-03-11T13:18:30.484Z,100604.16
2023-03-11T13:21:01.823Z,100612.78
2023-03-11T13:23:34.197Z,100600.34
2023-03-11T13:26:09.942Z,100606.03
2023-03-11T13:28:45.888Z,100587.53
2023-03-11T13:31:47.155Z,100600.34
2023-03-11T13:34:38.647Z,100595.09
2023-03-11T13:37:36.343Z,100601.19
2023-03-11T13:40:14.188Z,100592.59
2023-03-11T13:42:50.810Z,100586.09
2023-03-11T13:45:30.461Z,100617.00
2023-03-11T13:48:01.575Z,100612.97
2023-03-11T13:50:35.910Z,100604.81
2023-03-11T13:53:08.042Z,100612.81
2023-03-11T13:55:40.386Z,100619.34
2023-03-11T13:58:20.002Z,100613.88
2023-03-11T14:00:50.078Z,100611.38
2023-03-11T14:03:23.165Z,100617.69
2023-03-11T14:05:57.299Z,100612.66
2023-03-11T14:08:31.753Z,100621.91
2023-03-11T14:11:03.570Z,100627.81
2023-03-11T14:13:50.007Z,100613.75
2023-03-11T14:16:43.946Z,100597.97
2023-03-11T14:19:16.748Z,100599.66
2023-03-11T14:21:46.011Z,100588.97
2023-03-11T14:24:23.495Z,100596.28
2023-03-11T14:26:58.669Z,100593.78
2023-03-11T14:29:33.332Z,100587.91
2023-03-11T14:32:00.940Z,100600.06
2023-03-11T14:34:30.109Z,100592.53
2023-03-11T14:37:02.133Z,100589.16
2023-03-11T14:39:31.812Z,100590.03
2023-03-11T14:42:04.826Z,100578.88
2023-03-11T14:44:35.556Z,100568.59
2023-03-11T14:47:22.342Z,100579.69
2023-03-11T14:49:50.947Z,100571.91
2023-03-11T14:52:25.492Z,100573.16
2023-03-11T14:54:54.249Z,100574.00
2023-03-11T14:57:33.335Z,100556.97
2023-03-11T15:00:00.804Z,100561.19
2023-03-11T15:02:45.234Z,100560.09
2023-03-11T15:05:22.395Z,100564.72
2023-03-11T15:07:56.852Z,100565.53
2023-03-11T15:10:23.890Z,100569.78
2023-03-11T15:12:50.869Z,100568.94
2023-03-11T15:15:26.948Z,100562.63
2023-03-11T15:17:56.723Z,100569.78
2023-03-11T15:20:35.411Z,100570.59
2023-03-11T15:23:05.428Z,100577.69
2023-03-11T15:25:35.319Z,100574.75
2023-03-11T15:28:25.377Z,100580.63
2023-03-11T15:31:38.160Z,100591.94
2023-03-11T15:34:18.144Z,100594.09
2023-03-11T15:36:47.860Z,100580.63
2023-03-11T15:39:26.831Z,100576.84
2023-03-11T15:42:13.710Z,100576.06
2023-03-11T15:44:52.736Z,100579.00
2023-03-11T15:47:23.662Z,100578.59
2023-03-11T15:49:51.295Z,100595.41
2023-03-11T15:52:22.037Z,100597.94
2023-03-11T15:54:55.469Z,100620.22
2023-03-11T15:57:26.704Z,100642.31
2023-03-11T15:59:56.630Z,100692.06
2023-03-11T16:02:26.910Z,100680.28
2023-03-11T16:04:55.477Z,100681.94
2023-03-11T16:07:38.082Z,100688.25
2023-03-11T16:10:08.024Z,100691.56
2023-03-11T16:12:35.465Z,100690.16
2023-03-11T16:15:02.588Z,100706.09
2023-03-11T16:17:43.042Z,100705.00
2023-03-11T16:20:15.898Z,100731.50
2023-03-11T16:22:42.809Z,100714.91
2023-03-11T16:25:26.126Z,100725.06
2023-03-11T16:27:56.384Z,100715.50
2023-03-11T16:30:25.544Z,100748.00
2023-03-11T16:32:52.614Z,100741.94
2023-03-11T16:35:20.003Z,100727.38
2023-03-11T16:37:47.331Z,100728.06
2023-03-11T16:40:26.766Z,100732.47
2023-03-11T16:43:14.089Z,100752.41
2023-03-11T16:45:41.111Z,100737.50
2023-03-11T16:48:08.081Z,100752.47
2023-03-11T16:50:37.340Z,100766.59
2023-03-11T16:53:05.250Z,100773.53
2023-03-11T16:55:32.435Z,100750.06
2023-03-11T16:57:59.464Z,100772.69
2023-03-11T17:00:27.012Z,100784.06
2023-03-11T17:02:54.244Z,100780.75
2023-03-11T17:05:21.791Z,100787.25
2023-03-11T17:07:52.452Z,100785.28
2023-03-11T17:10:19.369Z,100808.50
2023-03-11T17:12:46.383Z,100812.19
2023-03-11T17:15:13.422Z,100807.50
2023-03-11T17:17:40.322Z,100808.22
2023-03-11T17:20:09.051Z,100809.34
2023-03-11T17:22:36.102Z,100820.16
2023-03-11T17:25:03.829Z,100779.28
2023-03-11T17:27:32.814Z,100781.19
2023-03-11T17:30:01.949Z,100805.19
2023-03-11T17:32:29.401Z,100806.69
2023-03-11T17:34:56.628Z,100807.44
2023-03-11T17:37:23.726Z,100832.47
2023-03-11T17:39:50.770Z,100830.06
2023-03-11T17:42:17.851Z,100822.44
2023-03-11T17:44:51.720Z,100843.78
2023-03-11T17:47:20.195Z,100828.69
2023-03-11T17:49:49.498Z,100844.72
2023-03-11T17:52:16.642Z,100843.16
2023-03-11T17:54:44.119Z,100859.56
2023-03-11T17:57:11.354Z,100875.84
2023-03-11T17:59:38.448Z,100886.31
2023-03-11T18:02:05.592Z,100882.84
2023-03-11T18:04:32.531Z,100876.69
2023-03-11T18:06:59.525Z,100883.94
2023-03-11T18:09:26.606Z,100885.59
2023-03-11T18:11:54.432Z,100888.94
2023-03-11T18:14:21.265Z,100898.22
2023-03-11T18:16:48.285Z,100904.31
2023-03-11T18:19:15.313Z,100903.47
2023-03-11T18:21:42.231Z,100931.28
2023-03-11T18:24:09.195Z,100919.34
2023-03-11T18:26:36.108Z,100912.47
2023-03-11T18:29:03.219Z,100911.16
2023-03-11T18:31:31.098Z,100928.72
2023-03-11T18:34:01.036Z,100932.72
2023-03-11T18:36:33.612Z,100935.81
2023-03-11T18:39:01.608Z,100928.78
2023-03-11T18:41:31.998Z,100924.38
2023-03-11T18:43:59.466Z,100923.66
2023-03-11T18:46:29.380Z,100937.25
2023-03-11T18:48:57.713Z,100932.00
2023-03-11T18:51:28.590Z,100943.69
2023-03-11T18:53:55.681Z,100948.50
2023-03-11T18:56:22.768Z,100967.34
2023-03-11T18:58:49.743Z,100962.53
2023-03-11T19:01:19.122Z,100971.06
2023-03-11T19:03:54.609Z,100967.28
2023-03-11T19:06:23.363Z,100968.56
2023-03-11T19:08:51.126Z,100971.00
2023-03-11T19:11:20.855Z,100978.88
2023-03-11T19:13:48.358Z,100989.53
2023-03-11T19:16:18.525Z,100988.50
2023-03-11T19:18:46.586Z,100991.69
2023-03-11T19:21:15.654Z,100987.19
2023-03-11T19:23:43.106Z,100989.75
2023-03-11T19:26:10.334Z,100981.16
2023-03-11T19:28:37.299Z,100998.00
2023-03-11T19:31:05.449Z,100993.47
2023-03-11T19:33:32.768Z,101002.84
2023-03-11T19:36:01.924Z,101007.09
2023-03-11T19:38:29.783Z,101010.38
2023-03-11T19:41:07.905Z,101015.03
2023-03-11T19:43:35.894Z,101021.56
2023-03-11T19:46:07.721Z,101021.00
2023-03-11T19:48:35.753Z,101021.00
2023-03-11T19:51:02.793Z,101019.88
2023-03-11T19:53:30.028Z,101019.56
2023-03-11T19:55:58.496Z,101019.44
2023-03-11T19:58:30.120Z,101022.69
2023-03-11T20:00:58.879Z,101018.88
2023-03-11T20:03:26.344Z,101029.22
2023-03-11T20:05:56.781Z,101043.66
2023-03-11T20:08:25.655Z,101052.16
2023-03-11T20:10:53.489Z,101059.53
2023-03-11T20:13:22.159Z,101061.09
2023-03-11T20:15:49.800Z,101054.41
2023-03-11T20:18:18.045Z,101055.84
2023-03-11T20:20:45.409Z,101066.72
2023-03-11T20:23:12.689Z,101073.53
2023-03-11T20:25:41.127Z,101088.66
2023-03-11T20:28:08.694Z,101084.53
2023-03-11T20:30:38.672Z,101067.66
2023-03-11T20:33:06.489Z,101061.97
2023-03-11T20:35:34.105Z,101060.97
2023-03-11T20:38:02.867Z,101053.16
2023-03-11T20:40:30.428Z,101069.59
2023-03-11T20:42:57.441Z,101066.78
2023-03-11T20:45:24.391Z,101065.47
2023-03-11T20:47:53.763Z,101057.97
2023-03-11T20:50:21.737Z,101047.50
2023-03-11T20:52:48.925Z,101054.88
2023-03-11T20:55:16.458Z,101066.59
2023-03-11T20:57:43.581Z,101072.56
2023-03-11T21:00:12.435Z,101073.56
2023-03-11T21:02:41.329Z,101084.88
2023-03-11T21:05:09.301Z,101082.38
2023-03-11T21:07:36.518Z,101091.72
2023-03-11T21:10:09.540Z,101092.84
2023-03-11T21:12:36.655Z,101101.06
2023-03-11T21:15:04.938Z,101115.28
2023-03-11T21:17:33.060Z,101121.78
2023-03-11T21:19:59.987Z,101120.09
2023-03-11T21:22:27.025Z,101123.81
2023-03-11T21:24:55.198Z,101124.78
2023-03-11T21:27:26.603Z,101116.72
2023-03-11T21:29:57.268Z,101120.09
2023-03-11T21:32:26.137Z,101117.78
2023-03-11T21:35:00.441Z,101131.69
2023-03-11T21:37:32.235Z,101139.66
2023-03-11T21:39:59.381Z,101139.09
2023-03-11T21:42:30.213Z,101130.56
2023-03-11T21:44:57.429Z,101125.72
2023-03-11T21:47:24.459Z,101119.31
2023-03-11T21:49:51.483Z,101117.63
2023-03-11T21:52:18.484Z,101109.84
2023-03-11T21:54:45.429Z,101109.53
2023-03-11T21:57:12.629Z,101106.81
2023-03-11T21:59:39.590Z,101107.53
2023-03-11T22:02:06.790Z,101114.59
2023-03-11T22:04:33.793Z,101113.78
2023-03-11T22:07:00.911Z,101125.41
2023-03-11T22:09:28.048Z,101123.88
2023-03-11T22:11:56.331Z,101125.72
2023-03-11T22:14:24.132Z,101118.34
2023-03-11T22:16:51.605Z,101120.63
2023-03-11T22:19:18.661Z,101127.16
2023-03-11T22:21:45.586Z,101117.53
2023-03-11T22:24:12.445Z,101116.66
2023-03-11T22:26:39.438Z,101110.41
2023-03-11T22:29:08.850Z,101139.38
2023-03-11T22:31:36.417Z,101140.22
2023-03-11T22:34:03.362Z,101141.22
2023-03-11T22:36:30.264Z,101141.66
2023-03-11T22:38:57.186Z,101148.06
2023-03-11T22:41:24.269Z,101152.75
2023-03-11T22:43:51.227Z,101134.88
2023-03-11T22:46:18.298Z,101134.88
2023-03-11T22:48:45.219Z,101125.38
2023-03-11T22:51:13.066Z,101130.78
2023-03-11T22:53:40.137Z,101129.25
2023-03-11T22:56:12.094Z,101137.75
2023-03-11T22:58:39.894Z,101140.91
2023-03-11T23:01:07.044Z,101139.34
2023-03-11T23:03:35.378Z,101143.19
2023-03-11T23:06:05.741Z,101146.03
2023-03-11T23:08:33.173Z,101147.31
2023-03-11T23:11:06.024Z,101145.75
2023-03-11T23:13:35.623Z,101150.56
2023-03-11T23:16:08.628Z,101151.28
2023-03-11T23:18:36.468Z,101161.91
2023-03-11T23:21:04.225Z,101159.63
2023-03-11T23:23:31.436Z,101163.91
2023-03-11T23:25:58.345Z,101170.16
2023-03-11T23:28:25.262Z,101162.91
2023-03-11T23:30:52.305Z,101153.28
2023-03-11T23:33:19.277Z,101147.88
2023-03-11T23:35:46.198Z,101151.44
2023-03-11T23:38:13.120Z,101148.88
2023-03-11T23:40:41.017Z,101141.78
2023-03-11T23:43:07.912Z,101138.09
2023-03-11T23:45:34.830Z,101140.09
2023-03-11T23:48:01.950Z,101138.38
2023-03-11T23:50:28.781Z,101136.69
2023-03-11T23:52:55.709Z,101136.69
2023-03-11T23:55:22.586Z,101130.56
2023-03-11T23:57:49.521Z,101121.81
